Terminal Aerodrome Forecast
Issued by NWS Topeka, KS

Home | Current Version | Previous Version | Graphics & Text | Print | Product List | Glossary On
Versions: 1 2 3 4 5 6 7 8 9 10 11 12 13 14 15 16 17 18 19 20 21 22 23
000
FTUS43 KTOP 221700
TAFTOP
TAF
KTOP 221735Z 2218/2318 14006KT P6SM VCSH SCT050 OVC090
     FM222200 12006KT P6SM BKN090
     FM231100 12006KT P6SM VCSH SCT050 OVC090=

USA.gov is the U.S. government's official web portal to all federal, state and local government web resources and services.